createdAt,value
2022-12-25T00:00:56.484Z,10.07
2022-12-25T00:03:13.787Z,10.63
2022-12-25T00:05:30.959Z,10.88
2022-12-25T00:07:48.017Z,9.73
2022-12-25T00:10:05.496Z,10.40
2022-12-25T00:12:22.621Z,11.48
2022-12-25T00:14:40.083Z,10.90
2022-12-25T00:16:57.483Z,11.20
2022-12-25T00:19:14.498Z,11.40
2022-12-25T00:21:32.480Z,8.77
2022-12-25T00:23:49.644Z,8.77
2022-12-25T00:26:07.092Z,8.57
2022-12-25T00:28:24.162Z,9.40
2022-12-25T00:30:41.332Z,9.10
2022-12-25T00:32:59.945Z,8.80
2022-12-25T00:35:17.397Z,9.35
2022-12-25T00:37:34.533Z,9.00
2022-12-25T00:39:51.426Z,9.15
2022-12-25T00:42:08.841Z,9.48
2022-12-25T00:44:26.202Z,9.13
2022-12-25T00:46:44.585Z,9.73
2022-12-25T00:49:02.917Z,8.95
2022-12-25T00:51:20.224Z,9.52
2022-12-25T00:53:37.527Z,10.07
2022-12-25T00:55:54.671Z,9.55
2022-12-25T00:58:14.218Z,9.27
2022-12-25T01:00:31.263Z,9.93
2022-12-25T01:02:49.671Z,9.20
2022-12-25T01:05:06.784Z,10.40
2022-12-25T01:07:23.794Z,9.93
2022-12-25T01:09:40.778Z,9.25
2022-12-25T01:11:57.787Z,9.35
2022-12-25T01:14:15.225Z,9.35
2022-12-25T01:16:32.589Z,8.73
2022-12-25T01:18:50.095Z,8.85
2022-12-25T01:21:07.254Z,9.35
2022-12-25T01:23:24.264Z,8.05
2022-12-25T01:25:41.653Z,8.40
2022-12-25T01:27:59.621Z,7.68
2022-12-25T01:30:16.985Z,8.07
2022-12-25T01:32:34.079Z,7.63
2022-12-25T01:34:55.851Z,8.38
2022-12-25T01:37:13.410Z,9.55
2022-12-25T01:39:30.476Z,9.35
2022-12-25T01:41:50.189Z,9.65
2022-12-25T01:44:07.577Z,9.50
2022-12-25T01:46:24.767Z,9.68
2022-12-25T01:48:41.959Z,9.00
2022-12-25T01:50:59.986Z,9.43
2022-12-25T01:53:17.326Z,8.70
2022-12-25T01:55:35.456Z,10.20
2022-12-25T01:57:52.498Z,9.30
2022-12-25T02:00:09.757Z,10.02
2022-12-25T02:02:26.860Z,11.95
2022-12-25T02:04:44.339Z,10.85
2022-12-25T02:07:01.220Z,10.38
2022-12-25T02:09:18.296Z,10.40
2022-12-25T02:11:35.403Z,10.57
2022-12-25T02:13:52.570Z,10.68
2022-12-25T02:16:09.557Z,11.57
2022-12-25T02:18:26.588Z,11.38
2022-12-25T02:20:43.940Z,11.10
2022-12-25T02:23:01.358Z,10.80
2022-12-25T02:25:18.493Z,11.05
2022-12-25T02:27:35.557Z,11.50
2022-12-25T02:29:52.684Z,11.05
2022-12-25T02:32:09.801Z,9.88
2022-12-25T02:34:27.164Z,10.52
2022-12-25T02:36:44.538Z,10.80
2022-12-25T02:39:01.873Z,9.70
2022-12-25T02:41:19.989Z,11.30
2022-12-25T02:43:38.032Z,12.52
2022-12-25T02:45:55.045Z,11.90
2022-12-25T02:48:12.014Z,11.00
2022-12-25T02:50:29.373Z,11.27
2022-12-25T02:52:46.387Z,11.07
2022-12-25T02:55:03.462Z,12.13
2022-12-25T02:57:20.779Z,11.00
2022-12-25T02:59:37.991Z,11.57
2022-12-25T03:01:55.402Z,11.52
2022-12-25T03:04:12.732Z,12.20
2022-12-25T03:06:29.648Z,11.75
2022-12-25T03:08:46.611Z,11.00
2022-12-25T03:11:03.654Z,10.93
2022-12-25T03:13:20.716Z,11.70
2022-12-25T03:15:37.721Z,11.30
2022-12-25T03:17:55.061Z,11.48
2022-12-25T03:20:12.120Z,11.13
2022-12-25T03:22:30.017Z,10.90
2022-12-25T03:24:47.339Z,11.02
2022-12-25T03:27:04.621Z,9.98
2022-12-25T03:29:27.142Z,9.57
2022-12-25T03:31:47.239Z,10.70
2022-12-25T03:34:04.440Z,10.93
2022-12-25T03:36:21.480Z,10.18
2022-12-25T03:38:38.421Z,11.25
2022-12-25T03:40:55.348Z,10.85
2022-12-25T03:43:12.276Z,11.05
2022-12-25T03:45:29.325Z,10.48
2022-12-25T03:47:46.368Z,10.80
2022-12-25T03:50:03.282Z,10.38
2022-12-25T03:52:21.263Z,10.65
2022-12-25T03:54:38.353Z,10.60
2022-12-25T03:56:55.604Z,11.10
2022-12-25T03:59:16.531Z,10.32
2022-12-25T04:01:36.827Z,11.35
2022-12-25T04:03:53.804Z,10.98
2022-12-25T04:06:10.856Z,10.48
2022-12-25T04:08:27.754Z,10.98
2022-12-25T04:10:44.653Z,10.13
2022-12-25T04:13:01.692Z,11.27
2022-12-25T04:15:18.939Z,10.80
2022-12-25T04:17:35.990Z,10.68
2022-12-25T04:19:52.875Z,10.00
2022-12-25T04:22:09.889Z,10.95
2022-12-25T04:24:26.799Z,10.30
2022-12-25T04:26:44.156Z,10.25
2022-12-25T04:29:01.209Z,10.38
2022-12-25T04:31:18.544Z,10.18
2022-12-25T04:33:35.565Z,10.00
2022-12-25T04:35:52.636Z,10.15
2022-12-25T04:38:09.685Z,9.68
2022-12-25T04:40:26.705Z,10.32
2022-12-25T04:42:43.755Z,9.23
2022-12-25T04:45:01.011Z,9.18
2022-12-25T04:47:18.292Z,9.80
2022-12-25T04:49:35.202Z,10.90
2022-12-25T04:51:52.146Z,9.40
2022-12-25T04:54:09.214Z,10.55
2022-12-25T04:56:26.115Z,9.15
2022-12-25T04:58:43.413Z,9.15
2022-12-25T05:01:01.692Z,9.85
2022-12-25T05:03:18.723Z,8.50
2022-12-25T05:05:36.016Z,7.95
2022-12-25T05:07:53.322Z,8.43
2022-12-25T05:10:10.266Z,9.35
2022-12-25T05:12:27.341Z,9.50
2022-12-25T05:14:44.272Z,8.88
2022-12-25T05:17:01.310Z,9.15
2022-12-25T05:19:18.219Z,9.50
2022-12-25T05:21:35.430Z,9.05
2022-12-25T05:23:52.419Z,8.75
2022-12-25T05:26:09.372Z,8.25
2022-12-25T05:28:26.280Z,8.40
2022-12-25T05:30:43.240Z,8.68
2022-12-25T05:33:00.185Z,7.80
2022-12-25T05:35:17.884Z,8.25
2022-12-25T05:37:34.788Z,8.70
2022-12-25T05:39:51.985Z,8.00
2022-12-25T05:42:09.015Z,8.40
2022-12-25T05:44:25.961Z,9.80
2022-12-25T05:46:42.972Z,8.27
2022-12-25T05:48:59.896Z,7.88
2022-12-25T05:51:16.872Z,8.32
2022-12-25T05:53:33.835Z,7.43
2022-12-25T05:55:50.734Z,8.45
2022-12-25T05:58:07.823Z,8.55
2022-12-25T06:00:24.867Z,8.05
2022-12-25T06:02:42.021Z,7.30
2022-12-25T06:04:59.440Z,7.72
2022-12-25T06:07:16.442Z,7.45
2022-12-25T06:09:33.480Z,6.82
2022-12-25T06:11:50.555Z,7.65
2022-12-25T06:14:07.469Z,8.48
2022-12-25T06:16:24.502Z,8.05
2022-12-25T06:18:41.528Z,8.73
2022-12-25T06:20:58.495Z,8.90
2022-12-25T06:23:15.594Z,7.97
2022-12-25T06:25:32.641Z,7.93
2022-12-25T06:27:49.551Z,7.30
2022-12-25T06:30:07.553Z,7.00
2022-12-25T06:32:24.793Z,7.55
2022-12-25T06:34:41.683Z,7.43
2022-12-25T06:36:58.622Z,7.50
2022-12-25T06:39:15.965Z,7.22
2022-12-25T06:41:33.004Z,9.10
2022-12-25T06:43:49.934Z,8.50
2022-12-25T06:46:10.468Z,8.20
2022-12-25T06:48:27.926Z,8.20
2022-12-25T06:50:45.886Z,7.38
2022-12-25T06:53:02.917Z,7.95
2022-12-25T06:55:19.948Z,8.07
2022-12-25T06:57:36.993Z,8.60
2022-12-25T06:59:55.558Z,7.50
2022-12-25T07:02:13.044Z,7.82
2022-12-25T07:04:30.301Z,7.80
2022-12-25T07:06:47.676Z,8.50
2022-12-25T07:09:04.885Z,8.30
2022-12-25T07:11:22.117Z,8.20
2022-12-25T07:13:39.413Z,7.57
2022-12-25T07:15:57.725Z,8.60
2022-12-25T07:18:14.756Z,8.63
2022-12-25T07:20:31.785Z,7.57
2022-12-25T07:22:48.843Z,7.88
2022-12-25T07:25:06.153Z,7.68
2022-12-25T07:27:23.391Z,6.88
2022-12-25T07:29:41.389Z,7.70
2022-12-25T07:31:58.338Z,8.10
2022-12-25T07:34:15.742Z,7.30
2022-12-25T07:36:32.728Z,6.85
2022-12-25T07:38:49.723Z,7.65
2022-12-25T07:41:06.783Z,7.15
2022-12-25T07:43:24.068Z,7.50
2022-12-25T07:45:41.136Z,7.65
2022-12-25T07:48:04.361Z,7.55
2022-12-25T07:50:22.140Z,7.43
2022-12-25T07:52:43.403Z,6.53
2022-12-25T07:55:01.154Z,7.10
2022-12-25T07:57:20.601Z,7.15
2022-12-25T07:59:37.624Z,7.60
2022-12-25T08:01:54.995Z,7.47
2022-12-25T08:04:12.276Z,7.13
2022-12-25T08:06:29.683Z,7.55
2022-12-25T08:08:47.072Z,7.25
2022-12-25T08:11:05.119Z,7.47
2022-12-25T08:13:22.169Z,7.28
2022-12-25T08:15:40.375Z,6.18
2022-12-25T08:17:57.412Z,7.20
2022-12-25T08:20:14.367Z,7.45
2022-12-25T08:22:31.401Z,6.82
2022-12-25T08:24:48.680Z,7.75
2022-12-25T08:27:05.993Z,7.32
2022-12-25T08:29:23.223Z,8.23
2022-12-25T08:31:45.899Z,7.05
2022-12-25T08:34:03.593Z,7.63
2022-12-25T08:36:20.525Z,6.88
2022-12-25T08:38:37.872Z,6.55
2022-12-25T08:40:54.885Z,8.35
2022-12-25T08:43:11.954Z,7.82
2022-12-25T08:45:34.826Z,7.80
2022-12-25T08:47:52.484Z,8.80
2022-12-25T08:50:09.758Z,7.20
2022-12-25T08:52:26.893Z,7.80
2022-12-25T08:54:44.133Z,8.50
2022-12-25T08:57:03.030Z,7.85
2022-12-25T08:59:20.193Z,7.45
2022-12-25T09:01:37.532Z,8.10
2022-12-25T09:03:54.600Z,7.43
2022-12-25T09:06:11.662Z,7.18
2022-12-25T09:08:28.699Z,6.88
2022-12-25T09:10:45.962Z,7.50
2022-12-25T09:13:02.863Z,6.07
2022-12-25T09:15:19.796Z,6.72
2022-12-25T09:17:37.830Z,7.43
2022-12-25T09:19:55.071Z,7.35
2022-12-25T09:22:12.113Z,7.90
2022-12-25T09:24:29.391Z,7.85
2022-12-25T09:26:46.340Z,7.63
2022-12-25T09:29:03.259Z,7.07
2022-12-25T09:31:20.387Z,6.13
2022-12-25T09:33:37.551Z,7.70
2022-12-25T09:35:54.536Z,6.60
2022-12-25T09:38:11.749Z,7.88
2022-12-25T09:40:28.859Z,7.70
2022-12-25T09:42:46.169Z,7.78
2022-12-25T09:45:03.475Z,7.70
2022-12-25T09:47:20.753Z,7.13
2022-12-25T09:49:38.781Z,7.43
2022-12-25T09:51:56.074Z,7.03
2022-12-25T09:54:13.123Z,7.07
2022-12-25T09:56:30.363Z,7.13
2022-12-25T09:58:47.255Z,6.85
2022-12-25T10:01:04.508Z,7.80
2022-12-25T10:03:21.491Z,7.22
2022-12-25T10:05:38.458Z,6.45
2022-12-25T10:07:55.507Z,6.72
2022-12-25T10:10:12.861Z,6.30
2022-12-25T10:12:30.087Z,6.20
2022-12-25T10:14:47.407Z,6.47
2022-12-25T10:17:04.741Z,6.80
2022-12-25T10:19:22.105Z,6.20
2022-12-25T10:21:39.113Z,6.28
2022-12-25T10:23:56.163Z,6.47
2022-12-25T10:26:13.246Z,5.97
2022-12-25T10:28:30.540Z,7.18
2022-12-25T10:30:47.488Z,6.50
2022-12-25T10:33:04.534Z,6.57
2022-12-25T10:35:21.793Z,7.25
2022-12-25T10:37:38.850Z,7.00
2022-12-25T10:39:55.826Z,6.57
2022-12-25T10:42:12.880Z,5.97
2022-12-25T10:44:30.225Z,6.10
2022-12-25T10:46:47.414Z,6.20
2022-12-25T10:49:04.428Z,5.70
2022-12-25T10:51:21.443Z,6.10
2022-12-25T10:53:38.496Z,5.50
2022-12-25T10:55:55.531Z,5.18
2022-12-25T10:58:12.410Z,5.90
2022-12-25T11:00:29.315Z,5.95
2022-12-25T11:02:47.675Z,5.68
2022-12-25T11:05:04.880Z,6.10
2022-12-25T11:07:21.979Z,5.30
2022-12-25T11:09:38.948Z,5.35
2022-12-25T11:11:56.017Z,5.65
2022-12-25T11:14:13.025Z,5.57
2022-12-25T11:16:30.466Z,5.10
2022-12-25T11:18:47.637Z,5.05
2022-12-25T11:21:05.637Z,5.47
2022-12-25T11:23:23.599Z,5.10
2022-12-25T11:25:40.669Z,5.65
2022-12-25T11:27:57.657Z,4.93
2022-12-25T11:30:16.177Z,5.22
2022-12-25T11:32:33.602Z,5.10
2022-12-25T11:34:50.680Z,4.97
2022-12-25T11:37:08.926Z,5.22
2022-12-25T11:50:10.951Z,4.93
2022-12-25T11:52:27.856Z,4.78
2022-12-25T11:54:44.884Z,4.82
2022-12-25T11:57:01.785Z,4.53
2022-12-25T11:59:19.094Z,4.50
2022-12-25T12:01:36.518Z,4.25
2022-12-25T12:03:53.661Z,4.47
2022-12-25T12:06:10.980Z,4.18
2022-12-25T12:08:28.027Z,4.25
2022-12-25T12:10:45.268Z,4.63
2022-12-25T12:13:02.198Z,4.30
2022-12-25T12:15:19.440Z,4.30
2022-12-25T12:17:36.703Z,4.40
2022-12-25T12:19:53.745Z,4.57
2022-12-25T12:22:10.773Z,4.10
2022-12-25T12:24:27.675Z,4.35
2022-12-25T12:26:45.655Z,3.72
2022-12-25T12:29:02.673Z,3.92
2022-12-25T12:31:19.682Z,4.03
2022-12-25T12:33:36.982Z,3.72
2022-12-25T12:35:54.233Z,3.47
2022-12-25T12:38:11.240Z,3.63
2022-12-25T12:40:28.592Z,3.67
2022-12-25T12:42:45.537Z,3.58
2022-12-25T12:45:02.828Z,3.78
2022-12-25T12:47:19.837Z,3.80
2022-12-25T12:49:36.766Z,3.53
2022-12-25T12:51:53.756Z,3.22
2022-12-25T12:54:11.035Z,3.13
2022-12-25T12:56:27.975Z,3.45
2022-12-25T12:58:45.938Z,3.58
2022-12-25T13:01:02.876Z,3.63
2022-12-25T13:03:20.200Z,3.78
2022-12-25T13:05:37.353Z,3.72
2022-12-25T13:07:54.588Z,3.58
2022-12-25T13:10:11.879Z,3.97
2022-12-25T13:12:28.821Z,3.50
2022-12-25T13:14:45.860Z,3.70
2022-12-25T13:17:02.830Z,3.80
2022-12-25T13:19:20.066Z,3.42
2022-12-25T13:21:38.119Z,3.70
2022-12-25T13:23:55.406Z,4.00
2022-12-25T13:26:12.447Z,3.33
2022-12-25T13:28:29.401Z,3.90
2022-12-25T13:30:47.631Z,3.78
2022-12-25T13:33:04.654Z,3.97
2022-12-25T13:35:21.863Z,3.38
2022-12-25T13:37:39.166Z,3.55
2022-12-25T13:39:56.268Z,3.40
2022-12-25T13:42:13.491Z,4.28
2022-12-25T13:44:30.512Z,3.95
2022-12-25T13:46:47.587Z,3.55
2022-12-25T13:49:05.867Z,3.53
2022-12-25T13:51:22.805Z,3.35
2022-12-25T13:53:40.744Z,3.20
2022-12-25T13:55:57.824Z,3.50
2022-12-25T13:58:14.752Z,3.53
2022-12-25T14:00:31.787Z,3.40
2022-12-25T14:02:48.973Z,3.20
2022-12-25T14:05:05.962Z,3.20
2022-12-25T14:07:22.880Z,3.40
2022-12-25T14:09:40.223Z,3.33
2022-12-25T14:11:57.541Z,3.50
2022-12-25T14:14:14.528Z,3.05
2022-12-25T14:16:31.855Z,3.22
2022-12-25T14:18:49.196Z,3.25
2022-12-25T14:21:06.299Z,3.45
2022-12-25T14:23:23.310Z,3.65
2022-12-25T14:25:40.275Z,3.15
2022-12-25T14:27:57.548Z,3.25
2022-12-25T14:30:14.806Z,3.40
2022-12-25T14:32:32.052Z,3.75
2022-12-25T14:34:49.413Z,3.55
2022-12-25T14:37:06.350Z,3.60
2022-12-25T14:39:23.247Z,3.10
2022-12-25T14:41:41.257Z,3.38
2022-12-25T14:43:58.505Z,3.42
2022-12-25T14:46:16.522Z,3.33
2022-12-25T14:48:33.565Z,3.10
2022-12-25T14:50:50.833Z,3.60
2022-12-25T14:53:08.831Z,3.58
2022-12-25T14:55:26.064Z,3.53
2022-12-25T14:57:44.146Z,3.47
2022-12-25T15:00:01.273Z,3.33
2022-12-25T15:02:18.315Z,3.63
2022-12-25T15:04:35.441Z,3.50
2022-12-25T15:06:52.818Z,3.80
2022-12-25T15:09:09.891Z,3.75
2022-12-25T15:11:27.189Z,3.70
2022-12-25T15:13:44.302Z,3.67
2022-12-25T15:16:01.286Z,3.53
2022-12-25T15:18:18.361Z,4.15
2022-12-25T15:20:36.728Z,3.70
2022-12-25T15:23:18.491Z,3.83
2022-12-25T15:25:30.853Z,4.03
2022-12-25T15:27:47.826Z,3.92
2022-12-25T15:30:10.193Z,4.10
2022-12-25T15:32:28.073Z,4.35
2022-12-25T15:34:45.400Z,3.50
2022-12-25T15:37:02.431Z,3.83
2022-12-25T15:39:19.469Z,4.00
2022-12-25T15:41:36.662Z,4.03
2022-12-25T15:43:53.649Z,3.58
2022-12-25T15:46:10.937Z,3.60
2022-12-25T15:48:28.011Z,3.67
2022-12-25T15:50:44.975Z,3.85
2022-12-25T15:53:02.240Z,4.07
2022-12-25T15:55:20.487Z,4.05
2022-12-25T15:57:37.466Z,3.70
2022-12-25T15:59:54.532Z,4.00
2022-12-25T16:02:11.557Z,4.00
2022-12-25T16:04:28.604Z,4.05
2022-12-25T16:06:45.905Z,3.80
2022-12-25T16:09:02.833Z,3.97
2022-12-25T16:11:19.901Z,4.30
2022-12-25T16:13:37.154Z,3.90
2022-12-25T16:15:54.492Z,3.97
2022-12-25T16:18:11.814Z,4.85
2022-12-25T16:20:29.159Z,4.63
2022-12-25T16:22:46.479Z,4.30
2022-12-25T16:25:03.431Z,5.32
2022-12-25T16:27:21.370Z,6.22
2022-12-25T16:29:38.365Z,5.10
2022-12-25T16:31:55.298Z,5.32
2022-12-25T16:34:12.323Z,4.82
2022-12-25T16:36:29.264Z,4.38
2022-12-25T16:38:46.366Z,4.85
2022-12-25T16:41:03.303Z,4.55
2022-12-25T16:43:23.991Z,4.88
2022-12-25T16:45:42.318Z,4.47
2022-12-25T16:47:59.599Z,4.50
2022-12-25T16:50:16.548Z,4.75
2022-12-25T16:52:33.942Z,4.50
2022-12-25T16:54:51.027Z,5.03
2022-12-25T16:57:09.089Z,4.97
2022-12-25T16:59:26.022Z,5.10
2022-12-25T17:01:43.555Z,5.82
2022-12-25T17:04:00.761Z,5.30
2022-12-25T17:06:17.977Z,5.20
2022-12-25T17:08:35.264Z,5.25
2022-12-25T17:10:52.332Z,5.03
2022-12-25T17:13:09.296Z,5.45
2022-12-25T17:15:27.609Z,5.10
2022-12-25T17:17:44.870Z,5.30
2022-12-25T17:20:01.990Z,5.05
2022-12-25T17:22:19.271Z,4.97
2022-12-25T17:24:37.340Z,5.10
2022-12-25T17:26:54.398Z,6.53
2022-12-25T17:29:12.231Z,10.60
2022-12-25T17:31:30.679Z,10.10
2022-12-25T17:33:48.062Z,10.10
2022-12-25T17:36:05.327Z,8.48
2022-12-25T17:38:22.382Z,7.85
2022-12-25T17:40:39.668Z,7.35
2022-12-25T17:42:56.591Z,6.25
2022-12-25T17:45:14.835Z,6.70
2022-12-25T17:47:32.170Z,6.47
2022-12-25T17:49:49.199Z,6.43
2022-12-25T17:52:06.246Z,6.47
2022-12-25T17:54:23.596Z,5.80
2022-12-25T17:56:40.683Z,5.70
2022-12-25T17:58:57.745Z,5.70
2022-12-25T18:01:14.727Z,5.43
2022-12-25T18:03:31.915Z,6.32
2022-12-25T18:05:49.301Z,6.10
2022-12-25T18:08:06.597Z,5.75
2022-12-25T18:10:23.569Z,5.78
2022-12-25T18:12:40.602Z,6.38
2022-12-25T18:14:57.980Z,5.38
2022-12-25T18:17:15.065Z,5.80
2022-12-25T18:19:32.089Z,6.30
2022-12-25T18:21:49.362Z,6.13
2022-12-25T18:24:06.366Z,6.20
2022-12-25T18:26:23.407Z,6.38
2022-12-25T18:28:40.535Z,6.15
2022-12-25T18:30:58.840Z,5.93
2022-12-25T18:33:15.848Z,6.18
2022-12-25T18:35:32.785Z,5.57
2022-12-25T18:37:49.801Z,5.90
2022-12-25T18:40:06.718Z,6.07
2022-12-25T18:42:23.886Z,6.82
2022-12-25T18:44:40.898Z,7.18
2022-12-25T18:46:58.771Z,6.05
2022-12-25T18:49:15.815Z,7.30
2022-12-25T18:51:36.867Z,6.60
2022-12-25T18:53:54.315Z,6.28
2022-12-25T18:56:11.463Z,6.80
2022-12-25T18:58:28.728Z,6.80
2022-12-25T19:00:46.138Z,6.88
2022-12-25T19:03:03.299Z,6.78
2022-12-25T19:05:20.380Z,6.78
2022-12-25T19:07:37.700Z,7.75
2022-12-25T19:09:54.904Z,7.13
2022-12-25T19:12:12.699Z,8.35
2022-12-25T19:14:29.839Z,9.13
2022-12-25T19:17:05.059Z,8.35
2022-12-25T19:19:22.145Z,7.63
2022-12-25T19:21:39.420Z,8.35
2022-12-25T19:23:56.493Z,7.80
2022-12-25T19:26:13.499Z,8.32
2022-12-25T19:28:31.596Z,7.65
2022-12-25T19:30:48.654Z,7.88
2022-12-25T19:33:05.701Z,7.65
2022-12-25T19:35:22.704Z,7.47
2022-12-25T19:37:41.773Z,7.47
2022-12-25T19:39:59.061Z,7.10
2022-12-25T19:42:16.328Z,6.57
2022-12-25T19:44:33.622Z,8.45
2022-12-25T19:46:51.924Z,9.18
2022-12-25T19:49:08.865Z,10.27
2022-12-25T19:51:25.791Z,10.70
2022-12-25T19:53:42.729Z,8.50
2022-12-25T19:55:59.732Z,8.98
2022-12-25T19:58:16.892Z,9.77
2022-12-25T20:00:34.033Z,9.13
2022-12-25T20:02:51.236Z,8.65
2022-12-25T20:05:08.448Z,8.38
2022-12-25T20:07:25.363Z,7.90
2022-12-25T20:09:42.692Z,7.50
2022-12-25T20:12:00.015Z,7.13
2022-12-25T20:14:18.140Z,7.63
2022-12-25T20:16:35.458Z,7.80
2022-12-25T20:18:53.813Z,7.68
2022-12-25T20:21:10.795Z,8.82
2022-12-25T20:23:28.175Z,8.13
2022-12-25T20:25:45.225Z,7.88
2022-12-25T20:28:02.548Z,7.47
2022-12-25T20:30:19.623Z,8.10
2022-12-25T20:32:36.974Z,7.50
2022-12-25T20:34:54.045Z,7.22
2022-12-25T20:37:13.883Z,10.07
2022-12-25T20:39:30.972Z,64.18
2022-12-25T20:41:47.952Z,52.78
2022-12-25T20:44:05.277Z,22.42
2022-12-25T20:46:22.485Z,21.88
2022-12-25T20:48:40.676Z,15.38
2022-12-25T20:50:57.698Z,17.85
2022-12-25T20:53:14.770Z,27.02
2022-12-25T20:55:32.048Z,15.40
2022-12-25T20:57:49.078Z,10.70
2022-12-25T21:00:07.347Z,8.25
2022-12-25T21:02:35.590Z,7.88
2022-12-25T21:04:54.387Z,7.57
2022-12-25T21:07:11.450Z,6.85
2022-12-25T21:09:28.766Z,7.00
2022-12-25T21:11:45.867Z,7.07
2022-12-25T21:14:03.151Z,7.60
2022-12-25T21:16:20.363Z,6.45
2022-12-25T21:18:37.565Z,6.38
2022-12-25T21:20:54.595Z,6.90
2022-12-25T21:23:11.875Z,6.00
2022-12-25T21:25:28.951Z,6.28
2022-12-25T21:27:46.274Z,6.53
2022-12-25T21:30:15.016Z,6.50
2022-12-25T21:32:32.909Z,6.80
2022-12-25T21:34:49.869Z,6.15
2022-12-25T21:37:07.182Z,6.45
2022-12-25T21:39:24.491Z,6.20
2022-12-25T21:41:42.910Z,6.35
2022-12-25T21:44:00.305Z,6.75
2022-12-25T21:46:17.595Z,6.60
2022-12-25T21:48:34.997Z,6.68
2022-12-25T21:50:52.020Z,7.03
2022-12-25T21:53:09.369Z,6.75
2022-12-25T21:55:26.592Z,6.72
2022-12-25T21:57:43.863Z,6.93
2022-12-25T22:00:02.283Z,7.13
2022-12-25T22:02:20.524Z,7.53
2022-12-25T22:04:37.754Z,7.00
2022-12-25T22:06:56.034Z,6.50
2022-12-25T22:09:13.088Z,6.00
2022-12-25T22:11:30.434Z,6.80
2022-12-25T22:13:47.379Z,6.22
2022-12-25T22:16:04.707Z,6.25
2022-12-25T22:18:21.846Z,6.60
2022-12-25T22:20:38.965Z,6.10
2022-12-25T22:22:56.263Z,5.97
2022-12-25T22:25:13.311Z,6.50
2022-12-25T22:27:30.375Z,5.85
2022-12-25T22:29:47.405Z,5.40
2022-12-25T22:32:04.414Z,6.20
2022-12-25T22:34:21.783Z,5.68
2022-12-25T22:36:39.030Z,5.15
2022-12-25T22:38:56.055Z,6.10
2022-12-25T22:41:14.411Z,5.57
2022-12-25T22:44:06.390Z,5.55
2022-12-25T22:46:08.665Z,5.05
2022-12-25T22:48:25.699Z,5.25
2022-12-25T22:50:42.971Z,5.18
2022-12-25T22:53:00.299Z,5.30
2022-12-25T22:55:17.220Z,4.90
2022-12-25T22:57:34.399Z,5.03
2022-12-25T22:59:51.449Z,5.00
2022-12-25T23:02:08.643Z,5.10
2022-12-25T23:04:26.044Z,5.20
2022-12-25T23:06:43.085Z,5.03
2022-12-25T23:09:00.059Z,4.90
2022-12-25T23:11:17.167Z,4.95
2022-12-25T23:13:35.402Z,4.93
2022-12-25T23:15:53.832Z,4.78
2022-12-25T23:18:10.967Z,4.90
2022-12-25T23:20:28.289Z,4.72
2022-12-25T23:22:45.587Z,4.32
2022-12-25T23:25:02.912Z,4.40
2022-12-25T23:27:20.003Z,4.45
2022-12-25T23:29:37.432Z,4.40
2022-12-25T23:31:54.654Z,4.50
2022-12-25T23:34:11.612Z,4.65
2022-12-25T23:36:28.742Z,4.05
2022-12-25T23:38:46.762Z,4.03
2022-12-25T23:41:04.798Z,4.93
2022-12-25T23:43:21.825Z,4.60
2022-12-25T23:45:41.550Z,4.55
2022-12-25T23:47:58.745Z,4.35
2022-12-25T23:50:15.692Z,4.53
2022-12-25T23:52:33.054Z,4.28
2022-12-25T23:54:50.453Z,4.03
2022-12-25T23:57:07.388Z,4.03
2022-12-25T23:59:24.321Z,4.80
